createdAt,value
2019-02-08T00:03:46.459Z,100858.86
2019-02-08T00:08:51.937Z,100869.39
2019-02-08T00:13:57.409Z,100867.56
2019-02-08T00:19:03.269Z,100861.52
2019-02-08T00:24:08.623Z,100861.27
2019-02-08T00:29:14.106Z,100879.71
2019-02-08T00:34:19.646Z,100884.22
2019-02-08T00:39:25.219Z,100879.64
2019-02-08T00:44:30.988Z,100878.81
2019-02-08T00:49:36.767Z,100879.95
2019-02-08T00:54:42.311Z,100883.42
2019-02-08T00:59:48.289Z,100878.27
2019-02-08T01:04:53.760Z,100881.30
2019-02-08T01:09:59.831Z,100880.01
2019-02-08T01:15:08.351Z,100867.83
2019-02-08T01:20:17.219Z,100871.67
2019-02-08T01:25:25.106Z,100881.72
2019-02-08T01:30:32.216Z,100887.43
2019-02-08T01:35:38.183Z,100881.16
2019-02-08T01:40:43.543Z,100876.47
2019-02-08T01:45:48.913Z,100877.95
2019-02-08T01:50:54.468Z,100879.87
2019-02-08T01:56:00.233Z,100876.77
2019-02-08T02:01:06.511Z,100880.00
2019-02-08T02:06:11.875Z,100880.89
2019-02-08T02:11:17.448Z,100878.39
2019-02-08T02:16:23.158Z,100881.89
2019-02-08T02:21:28.678Z,100876.28
2019-02-08T02:26:34.197Z,100890.06
2019-02-08T02:31:39.789Z,100887.75
2019-02-08T02:36:45.057Z,100892.58
2019-02-08T02:41:50.414Z,100904.36
2019-02-08T02:46:55.762Z,100911.20
2019-02-08T02:52:01.071Z,100911.45
2019-02-08T02:57:07.197Z,100919.60
2019-02-08T03:02:12.563Z,100910.17
2019-02-08T03:07:17.923Z,100916.77
2019-02-08T03:12:23.277Z,100914.11
2019-02-08T03:17:28.646Z,100914.11
2019-02-08T03:22:34.105Z,100931.45
2019-02-08T03:27:39.351Z,100921.78
2019-02-08T03:32:45.021Z,100931.25
2019-02-08T03:37:50.700Z,100913.53
2019-02-08T03:42:56.209Z,100941.74
2019-02-08T03:48:01.606Z,100939.05
2019-02-08T03:53:08.311Z,100947.10
2019-02-08T03:58:14.270Z,100949.76
2019-02-08T04:03:20.960Z,100954.59
2019-02-08T04:08:26.715Z,100962.58
2019-02-08T04:13:32.232Z,100958.11
2019-02-08T04:18:37.798Z,100964.36
2019-02-08T04:23:42.991Z,100970.45
2019-02-08T04:28:48.366Z,100978.73
2019-02-08T04:33:53.736Z,100979.91
2019-02-08T04:38:59.289Z,100971.00
2019-02-08T04:44:05.363Z,100978.27
2019-02-08T04:49:10.837Z,100982.13
2019-02-08T04:54:16.418Z,100983.72
2019-02-08T04:59:21.760Z,100996.44
2019-02-08T05:04:27.211Z,100979.63
2019-02-08T05:09:33.122Z,100986.80
2019-02-08T05:14:38.724Z,100987.46
2019-02-08T05:19:44.435Z,101001.34
2019-02-08T05:24:49.780Z,100998.69
2019-02-08T05:29:55.187Z,101009.66
2019-02-08T05:35:00.836Z,101003.75
2019-02-08T05:40:12.588Z,101012.26
2019-02-08T05:45:23.150Z,101010.74
2019-02-08T05:50:29.722Z,101020.88
2019-02-08T05:55:35.463Z,101020.80
2019-02-08T06:00:47.669Z,101032.38
2019-02-08T06:05:53.196Z,101032.23
2019-02-08T06:10:59.090Z,101046.47
2019-02-08T06:16:06.382Z,101043.80
2019-02-08T06:21:12.097Z,101040.98
2019-02-08T06:26:17.615Z,101044.66
2019-02-08T06:31:22.837Z,101048.60
2019-02-08T06:36:28.238Z,101055.67
2019-02-08T06:41:33.706Z,101061.27
2019-02-08T06:46:39.213Z,101062.60
2019-02-08T06:51:44.526Z,101063.66
2019-02-08T06:56:51.563Z,101072.28
2019-02-08T07:02:14.647Z,101080.02
2019-02-08T07:07:27.393Z,101077.44
2019-02-08T07:12:43.028Z,101079.08
2019-02-08T07:17:52.816Z,101077.72
2019-02-08T07:23:15.354Z,101080.10
2019-02-08T07:28:31.464Z,101079.09
2019-02-08T07:33:38.486Z,101084.36
2019-02-08T07:38:51.923Z,101107.04
2019-02-08T07:44:17.234Z,101120.59
2019-02-08T07:49:31.888Z,101133.33
2019-02-08T07:54:39.125Z,101132.31
2019-02-08T07:59:46.902Z,101137.12
2019-02-08T08:04:54.033Z,101137.27
2019-02-08T08:10:08.061Z,101139.72
2019-02-08T08:15:17.851Z,101143.13
2019-02-08T08:20:31.723Z,101141.80
2019-02-08T08:25:44.146Z,101135.56
2019-02-08T08:30:54.833Z,101148.33
2019-02-08T08:36:06.121Z,101143.22
2019-02-08T08:41:30.866Z,101144.66
2019-02-08T08:46:45.263Z,101151.53
2019-02-08T08:52:05.584Z,101154.70
2019-02-08T08:57:40.623Z,101148.09
2019-02-08T09:03:08.350Z,101148.89
2019-02-08T09:08:31.630Z,101148.16
2019-02-08T09:13:51.853Z,101145.55
2019-02-08T09:19:14.946Z,101144.48
2019-02-08T09:24:23.440Z,101146.53
2019-02-08T09:29:49.895Z,101142.25
2019-02-08T09:35:07.242Z,101148.96
2019-02-08T09:40:32.576Z,101160.77
2019-02-08T09:46:04.454Z,101163.06
2019-02-08T09:51:28.035Z,101165.31
2019-02-08T09:56:39.438Z,101172.05
2019-02-08T10:02:13.055Z,101166.74
2019-02-08T10:07:40.727Z,101180.16
2019-02-08T10:13:05.548Z,101181.33
2019-02-08T10:18:30.885Z,101184.44
2019-02-08T10:23:47.358Z,101192.38
2019-02-08T10:29:20.116Z,101195.48
2019-02-08T10:34:46.558Z,101206.06
2019-02-08T10:40:16.104Z,101195.24
2019-02-08T10:45:58.108Z,101191.47
2019-02-08T10:51:30.504Z,101185.14
2019-02-08T10:56:58.269Z,101185.34
2019-02-08T11:02:40.126Z,101173.30
2019-02-08T11:08:04.907Z,101180.06
2019-02-08T11:13:37.614Z,101183.48
2019-02-08T11:19:21.699Z,101170.13
2019-02-08T11:24:27.215Z,101150.52
2019-02-08T11:29:33.013Z,101169.63
2019-02-08T11:34:38.455Z,101173.11
2019-02-08T11:39:44.121Z,101163.48
2019-02-08T11:44:49.579Z,101177.34
2019-02-08T11:49:54.805Z,101183.85
2019-02-08T11:55:00.301Z,101182.59
2019-02-08T12:00:27.901Z,101178.59
2019-02-08T12:05:33.264Z,101176.55
2019-02-08T12:10:38.595Z,101167.52
2019-02-08T12:15:44.494Z,101174.83
2019-02-08T12:20:49.919Z,101170.79
2019-02-08T12:25:55.806Z,101163.70
2019-02-08T12:31:01.274Z,101167.53
2019-02-08T12:36:06.937Z,101161.02
2019-02-08T12:41:13.002Z,101141.58
2019-02-08T12:46:18.681Z,101144.70
2019-02-08T12:51:24.241Z,101150.94
2019-02-08T12:56:29.707Z,101163.38
2019-02-08T13:01:37.773Z,101164.12
2019-02-08T13:06:42.185Z,101158.98
2019-02-08T13:11:48.093Z,101153.34
2019-02-08T13:16:53.533Z,101157.69
2019-02-08T13:21:58.870Z,101146.17
2019-02-08T13:27:04.863Z,101151.14
2019-02-08T13:32:10.375Z,101149.61
2019-02-08T13:37:15.731Z,101155.31
2019-02-08T13:42:21.196Z,101156.50
2019-02-08T13:47:26.558Z,101161.12
2019-02-08T13:52:31.684Z,101159.10
2019-02-08T13:57:36.998Z,101160.95
2019-02-08T14:02:42.773Z,101160.23
2019-02-08T14:07:47.927Z,101162.51
2019-02-08T14:12:53.397Z,101154.12
2019-02-08T14:17:58.928Z,101153.69
2019-02-08T14:23:05.388Z,101155.34
2019-02-08T14:28:10.670Z,101167.17
2019-02-08T14:33:16.011Z,101164.62
2019-02-08T14:38:21.984Z,101172.61
2019-02-08T14:43:27.348Z,101171.08
2019-02-08T14:48:32.712Z,101173.16
2019-02-08T14:53:38.187Z,101173.52
2019-02-08T14:58:43.433Z,101176.53
2019-02-08T15:03:48.895Z,101189.31
2019-02-08T15:08:54.030Z,101195.61
2019-02-08T15:13:59.445Z,101197.59
2019-02-08T15:19:05.732Z,101186.42
2019-02-08T15:24:11.238Z,101183.89
2019-02-08T15:29:16.607Z,101188.17
2019-02-08T15:34:22.069Z,101186.08
2019-02-08T15:39:27.550Z,101180.61
2019-02-08T15:44:32.983Z,101176.69
2019-02-08T15:49:39.062Z,101187.26
2019-02-08T15:54:44.420Z,101193.69
2019-02-08T15:59:49.887Z,101199.73
2019-02-08T16:04:55.522Z,101204.24
2019-02-08T16:10:00.785Z,101201.69
2019-02-08T16:15:14.762Z,101207.78
2019-02-08T16:20:22.708Z,101209.15
2019-02-08T16:25:30.603Z,101199.27
2019-02-08T16:30:42.311Z,101203.14
2019-02-08T16:35:47.770Z,101202.84
2019-02-08T16:40:53.343Z,101205.90
2019-02-08T16:45:58.702Z,101199.86
2019-02-08T16:51:05.743Z,101210.02
2019-02-08T16:56:11.184Z,101198.91
2019-02-08T17:01:16.510Z,101204.08
2019-02-08T17:06:22.089Z,101196.73
2019-02-08T17:11:27.616Z,101195.48
2019-02-08T17:16:32.884Z,101189.17
2019-02-08T17:21:38.248Z,101186.05
2019-02-08T17:26:43.604Z,101186.78
2019-02-08T17:31:49.062Z,101190.53
2019-02-08T17:36:54.320Z,101197.23
2019-02-08T17:41:59.561Z,101193.75
2019-02-08T17:47:05.150Z,101181.08
2019-02-08T17:52:10.812Z,101173.31
2019-02-08T17:57:16.476Z,101169.80
2019-02-08T18:02:21.924Z,101172.14
2019-02-08T18:07:27.223Z,101167.30
2019-02-08T18:12:32.707Z,101167.23
2019-02-08T18:17:38.012Z,101159.21
2019-02-08T18:22:43.472Z,101162.45
2019-02-08T18:27:48.940Z,101156.75
2019-02-08T18:32:54.501Z,101145.56
2019-02-08T18:37:59.853Z,101145.06
2019-02-08T18:43:05.835Z,101141.54
2019-02-08T18:48:11.295Z,101132.72
2019-02-08T18:53:16.698Z,101132.72
2019-02-08T18:58:22.527Z,101141.92
2019-02-08T19:03:28.077Z,101130.48
2019-02-08T19:08:33.548Z,101124.74
2019-02-08T19:13:39.298Z,101118.36
2019-02-08T19:18:44.702Z,101121.55
2019-02-08T19:23:49.935Z,101127.18
2019-02-08T19:28:55.518Z,101124.28
2019-02-08T19:34:01.880Z,101122.33
2019-02-08T19:39:08.666Z,101129.36
2019-02-08T19:44:14.133Z,101122.39
2019-02-08T19:49:19.670Z,101116.25
2019-02-08T19:54:24.933Z,101111.66
2019-02-08T19:59:30.303Z,101095.66
2019-02-08T20:04:35.986Z,101103.31
2019-02-08T20:09:41.235Z,101088.80
2019-02-08T20:14:46.882Z,101090.41
2019-02-08T20:19:52.452Z,101087.89
2019-02-08T20:24:57.927Z,101077.64
2019-02-08T20:30:03.278Z,101069.77
2019-02-08T20:35:11.704Z,101069.69
2019-02-08T20:40:19.644Z,101069.36
2019-02-08T20:45:27.068Z,101068.95
2019-02-08T20:50:32.395Z,101078.93
2019-02-08T20:55:39.137Z,101074.59
2019-02-08T21:00:50.274Z,101077.58
2019-02-08T21:05:55.956Z,101066.31
2019-02-08T21:11:01.405Z,101066.23
2019-02-08T21:16:06.868Z,101062.76
2019-02-08T21:21:12.639Z,101061.72
2019-02-08T21:26:18.192Z,101057.45
2019-02-08T21:31:23.786Z,101045.59
2019-02-08T21:36:29.220Z,101035.77
2019-02-08T21:41:34.664Z,101033.90
2019-02-08T21:46:40.065Z,101020.23
2019-02-08T21:51:45.499Z,101017.34
2019-02-08T21:56:51.065Z,100998.08
2019-02-08T22:01:56.922Z,100998.23
2019-02-08T22:07:02.510Z,100995.89
2019-02-08T22:12:07.760Z,101007.08
2019-02-08T22:17:13.124Z,100992.99
2019-02-08T22:22:18.670Z,100977.52
2019-02-08T22:27:23.920Z,100979.02
2019-02-08T22:32:29.478Z,100970.23
2019-02-08T22:37:35.270Z,100974.73
2019-02-08T22:42:40.727Z,100956.76
2019-02-08T22:47:46.150Z,100947.91
2019-02-08T22:52:51.275Z,100949.77
2019-02-08T22:57:56.928Z,100946.23
2019-02-08T23:03:02.477Z,100946.13
2019-02-08T23:08:10.584Z,100942.18
2019-02-08T23:13:17.072Z,100942.10
2019-02-08T23:18:22.537Z,100936.77
2019-02-08T23:23:28.103Z,100930.32
2019-02-08T23:28:33.565Z,100928.39
2019-02-08T23:33:39.111Z,100912.70
2019-02-08T23:38:44.593Z,100908.72
2019-02-08T23:43:50.440Z,100905.75
2019-02-08T23:48:55.821Z,100889.39
2019-02-08T23:54:01.389Z,100868.44
2019-02-08T23:59:06.741Z,100867.91
